createdAt,value
2022-10-21T00:01:24.890Z,94701.97
2022-10-21T00:03:51.331Z,94683.50
2022-10-21T00:06:17.707Z,94650.19
2022-10-21T00:08:44.138Z,94606.44
2022-10-21T00:11:10.595Z,94575.38
2022-10-21T00:13:38.608Z,94553.44
2022-10-21T00:16:05.252Z,94552.16
2022-10-21T00:18:32.045Z,94556.16
2022-10-21T00:20:58.618Z,94555.31
2022-10-21T00:23:25.146Z,94568.97
2022-10-21T00:25:58.501Z,94568.53
2022-10-21T00:28:25.123Z,94568.53
2022-10-21T00:30:51.545Z,94559.44
2022-10-21T00:33:17.991Z,94569.25
2022-10-21T00:35:50.642Z,94584.88
2022-10-21T00:38:17.018Z,94582.00
2022-10-21T00:40:43.424Z,94585.19
2022-10-21T00:43:11.216Z,94593.56
2022-10-21T00:45:37.623Z,94608.00
2022-10-21T00:48:19.052Z,94630.06
2022-10-21T00:50:55.392Z,94620.78
2022-10-21T00:53:22.192Z,94629.28
2022-10-21T00:55:52.410Z,94638.47
2022-10-21T00:58:19.387Z,94640.44
2022-10-21T01:00:45.832Z,94651.28
2022-10-21T01:03:12.327Z,94642.78
2022-10-21T01:05:38.782Z,94658.84
2022-10-21T01:08:05.249Z,94668.81
2022-10-21T01:10:31.652Z,94643.16
2022-10-21T01:13:10.159Z,94627.50
2022-10-21T01:15:37.123Z,94624.88
2022-10-21T01:18:16.595Z,94615.78
2022-10-21T01:21:04.008Z,94606.59
2022-10-21T01:24:07.878Z,94575.25
2022-10-21T01:27:11.285Z,94571.38
2022-10-21T01:29:49.691Z,94574.00
2022-10-21T01:32:34.762Z,94561.19
2022-10-21T01:35:07.029Z,94541.53
2022-10-21T01:37:51.791Z,94521.91
2022-10-21T01:40:26.840Z,94489.16
2022-10-21T01:43:19.487Z,94467.75
2022-10-21T01:45:48.494Z,94433.66
2022-10-21T01:48:20.989Z,94402.78
2022-10-21T01:50:51.022Z,94389.06
2022-10-21T01:53:17.397Z,94375.03
2022-10-21T01:55:43.791Z,94356.91
2022-10-21T01:58:13.754Z,94325.97
2022-10-21T02:00:40.186Z,94305.47
2022-10-21T02:03:09.199Z,94280.53
2022-10-21T02:05:35.839Z,94278.91
2022-10-21T02:08:02.303Z,94270.47
2022-10-21T02:10:31.987Z,94267.03
2022-10-21T02:12:58.887Z,94268.00
2022-10-21T02:15:25.348Z,94282.06
2022-10-21T02:17:57.799Z,94276.03
2022-10-21T02:20:24.712Z,94281.44
2022-10-21T02:22:51.216Z,94291.66
2022-10-21T02:25:20.408Z,94288.06
2022-10-21T02:27:47.071Z,94288.69
2022-10-21T02:30:13.495Z,94268.38
2022-10-21T02:32:56.940Z,94270.38
2022-10-21T02:35:40.962Z,94243.84
2022-10-21T02:38:15.988Z,94226.41
2022-10-21T02:40:46.980Z,94206.09
2022-10-21T02:43:22.664Z,94174.34
2022-10-21T02:45:49.137Z,94161.09
2022-10-21T02:48:15.537Z,94136.19
2022-10-21T02:50:41.939Z,94117.69
2022-10-21T02:53:08.389Z,94099.97
2022-10-21T02:55:34.771Z,94072.81
2022-10-21T02:58:01.182Z,94054.53
2022-10-21T03:00:30.791Z,94003.06
2022-10-21T03:02:59.258Z,93988.56
2022-10-21T03:05:25.676Z,93997.00
2022-10-21T03:07:52.100Z,93977.28
2022-10-21T03:10:18.496Z,93934.69
2022-10-21T03:12:44.871Z,93889.22
2022-10-21T03:15:11.251Z,93868.91
2022-10-21T03:17:37.922Z,93875.16
2022-10-21T03:20:04.943Z,93869.34
2022-10-21T03:22:31.402Z,93860.28
2022-10-21T03:24:57.784Z,93852.66
2022-10-21T03:27:24.226Z,93854.44
2022-10-21T03:29:50.626Z,93843.41
2022-10-21T03:32:17.031Z,93830.13
2022-10-21T03:34:43.425Z,93833.72
2022-10-21T03:37:09.859Z,93807.81
2022-10-21T03:39:36.274Z,93790.31
2022-10-21T03:42:02.647Z,93762.53
2022-10-21T03:44:29.020Z,93735.94
2022-10-21T03:46:55.418Z,93716.47
2022-10-21T03:49:22.915Z,93703.38
2022-10-21T03:51:49.416Z,93688.84
2022-10-21T03:54:16.147Z,93675.78
2022-10-21T03:56:42.546Z,93647.81
2022-10-21T03:59:08.996Z,93627.72
2022-10-21T04:01:35.653Z,93628.69
2022-10-21T04:04:02.045Z,93586.25
2022-10-21T04:06:28.482Z,93548.00
2022-10-21T04:08:54.922Z,93522.41
2022-10-21T04:11:21.346Z,93492.63
2022-10-21T04:13:47.712Z,93449.31
2022-10-21T04:16:15.346Z,93411.47
2022-10-21T04:18:41.758Z,93396.59
2022-10-21T04:21:08.817Z,93341.38
2022-10-21T04:23:35.580Z,93342.28
2022-10-21T04:26:02.024Z,93370.97
2022-10-21T04:28:28.404Z,93366.09
2022-10-21T04:30:54.818Z,93355.41
2022-10-21T04:33:21.195Z,93329.84
2022-10-21T04:35:47.584Z,93282.28
2022-10-21T04:38:14.003Z,93219.47
2022-10-21T04:40:40.376Z,93146.56
2022-10-21T04:43:06.754Z,93061.19
2022-10-21T04:45:33.295Z,92842.19
2022-10-21T04:47:59.669Z,92770.03
2022-10-21T04:50:26.101Z,92707.69
2022-10-21T04:52:52.466Z,92519.28
2022-10-21T04:55:18.854Z,92460.78
2022-10-21T04:57:45.278Z,92420.47
2022-10-21T05:00:12.244Z,92351.97
2022-10-21T05:02:38.912Z,92306.66
2022-10-21T05:05:06.055Z,92251.97
2022-10-21T05:07:32.419Z,92221.13
2022-10-21T05:09:58.795Z,92166.69
2022-10-21T05:12:25.224Z,92082.69
2022-10-21T05:14:51.664Z,92021.72
2022-10-21T05:17:18.030Z,91989.22
2022-10-21T05:19:44.437Z,91891.91
2022-10-21T05:22:11.714Z,91834.34
2022-10-21T05:24:38.084Z,91809.22
2022-10-21T05:27:04.470Z,91785.69
2022-10-21T05:29:30.871Z,91761.59
2022-10-21T05:31:57.295Z,91741.97
2022-10-21T05:34:23.669Z,91757.91
2022-10-21T05:36:50.036Z,91765.00
2022-10-21T05:39:16.425Z,91754.25
2022-10-21T05:41:45.473Z,91752.69
2022-10-21T05:44:14.295Z,91746.69
2022-10-21T05:46:40.713Z,91719.22
2022-10-21T05:49:07.522Z,91717.63
2022-10-21T05:51:34.090Z,91721.28
2022-10-21T05:54:02.809Z,91730.69
2022-10-21T05:56:29.206Z,91743.28
2022-10-21T05:58:55.587Z,91743.28
2022-10-21T06:01:22.050Z,91728.88
2022-10-21T06:03:48.506Z,91749.56
2022-10-21T06:06:14.888Z,91738.56
2022-10-21T06:08:41.323Z,91724.19
2022-10-21T06:11:11.690Z,91733.34
2022-10-21T06:13:38.299Z,91709.00
2022-10-21T06:18:32.625Z,91675.78
2022-10-21T06:20:59.022Z,91667.38
2022-10-21T06:23:25.486Z,91664.78
2022-10-21T06:26:18.419Z,91637.81
2022-10-21T06:28:45.252Z,91631.00
2022-10-21T06:31:14.138Z,91618.19
2022-10-21T06:33:40.623Z,91606.13
2022-10-21T06:36:07.344Z,91599.84
2022-10-21T06:38:34.135Z,91592.53
2022-10-21T06:41:01.730Z,91587.28
2022-10-21T06:43:28.249Z,91569.22
2022-10-21T06:46:02.102Z,91561.06
2022-10-21T06:48:28.494Z,91531.72
2022-10-21T06:51:02.727Z,91492.94
2022-10-21T06:53:29.226Z,91477.22
2022-10-21T06:56:16.464Z,91436.31
2022-10-21T06:58:43.224Z,91405.91
2022-10-21T07:01:21.331Z,91390.09
2022-10-21T07:03:56.893Z,91345.56
2022-10-21T07:06:23.420Z,91344.53
2022-10-21T07:08:57.951Z,91337.66
2022-10-21T07:11:24.926Z,91313.47
2022-10-21T07:13:51.284Z,91277.25
2022-10-21T07:16:25.964Z,91239.44
2022-10-21T07:18:53.047Z,91214.66
2022-10-21T07:21:21.017Z,91214.16
2022-10-21T07:23:48.252Z,91188.69
2022-10-21T07:26:14.822Z,91187.34
2022-10-21T07:28:42.186Z,91176.25
2022-10-21T07:31:08.616Z,91171.53
2022-10-21T07:33:35.103Z,91162.13
2022-10-21T07:36:05.612Z,91156.28
2022-10-21T07:38:32.071Z,91124.28
2022-10-21T07:40:59.200Z,91091.38
2022-10-21T07:43:25.656Z,91065.09
2022-10-21T07:45:52.056Z,91054.59
2022-10-21T07:48:19.111Z,91040.63
2022-10-21T07:50:45.711Z,91010.34
2022-10-21T07:53:13.044Z,90990.53
2022-10-21T07:55:39.817Z,90977.31
2022-10-21T07:58:06.213Z,90938.09
2022-10-21T08:00:32.587Z,90915.03
2022-10-21T08:02:59.273Z,90846.41
2022-10-21T08:05:25.750Z,90797.88
2022-10-21T08:07:52.220Z,90768.28
2022-10-21T08:10:18.665Z,90695.47
2022-10-21T08:12:45.093Z,90669.53
2022-10-21T08:15:11.550Z,90621.38
2022-10-21T08:17:37.926Z,90575.34
2022-10-21T08:20:04.751Z,90533.94
2022-10-21T08:22:31.145Z,90525.91
2022-10-21T08:24:57.545Z,90495.94
2022-10-21T08:27:23.901Z,90456.19
2022-10-21T08:29:50.308Z,90415.47
2022-10-21T08:32:16.688Z,90400.91
2022-10-21T08:34:44.884Z,90384.78
2022-10-21T08:37:11.284Z,90364.97
2022-10-21T08:39:37.666Z,90383.19
2022-10-21T08:42:16.852Z,90389.63
2022-10-21T08:44:49.852Z,90423.22
2022-10-21T08:47:45.124Z,90455.56
2022-10-21T08:50:22.424Z,90504.91
2022-10-21T08:52:51.961Z,90564.84
2022-10-21T08:55:21.592Z,90609.28
2022-10-21T08:57:48.243Z,90672.19
2022-10-21T09:00:25.271Z,90747.88
2022-10-21T09:03:10.468Z,90800.88
2022-10-21T09:06:01.662Z,90900.16
2022-10-21T09:08:37.026Z,90960.78
2022-10-21T09:11:20.132Z,91039.66
2022-10-21T09:13:59.954Z,91119.34
2022-10-21T09:16:26.301Z,91155.53
2022-10-21T09:18:52.729Z,91208.97
2022-10-21T09:21:27.948Z,91309.84
2022-10-21T09:23:57.468Z,91512.28
2022-10-21T09:26:43.527Z,91719.97
2022-10-21T09:29:37.771Z,91959.09
2022-10-21T09:32:20.389Z,92259.59
2022-10-21T09:34:52.725Z,92521.28
2022-10-21T09:37:35.374Z,92777.47
2022-10-21T09:40:17.654Z,93080.47
2022-10-21T09:42:48.312Z,93285.81
2022-10-21T09:45:30.430Z,93498.06
2022-10-21T09:48:00.736Z,93707.78
2022-10-21T09:50:27.951Z,93904.31
2022-10-21T09:53:22.582Z,94036.97
2022-10-21T09:55:56.088Z,94170.41
2022-10-21T09:58:24.617Z,94315.81
2022-10-21T10:00:51.087Z,94406.44
2022-10-21T10:03:31.230Z,94594.38
2022-10-21T10:05:57.917Z,94691.47
2022-10-21T10:08:36.238Z,94743.38
2022-10-21T10:11:08.898Z,94782.16
2022-10-21T10:13:36.452Z,94867.63
2022-10-21T10:16:31.873Z,95025.13
2022-10-21T10:19:11.890Z,95153.69
2022-10-21T10:21:38.275Z,95278.63
2022-10-21T10:24:05.319Z,95398.06
2022-10-21T10:26:33.919Z,95437.56
2022-10-21T10:29:17.253Z,95448.13
2022-10-21T10:31:50.602Z,95443.28
2022-10-21T10:34:30.717Z,95395.06
2022-10-21T10:37:21.609Z,95395.50
2022-10-21T10:39:49.546Z,95394.47
2022-10-21T10:42:19.962Z,95463.03
2022-10-21T10:44:46.348Z,95474.81
2022-10-21T10:47:21.052Z,95453.03
2022-10-21T10:49:47.428Z,95430.06
2022-10-21T10:52:13.905Z,95387.75
2022-10-21T10:54:41.086Z,95357.25
2022-10-21T10:57:13.415Z,95341.19
2022-10-21T10:59:52.929Z,95326.78
2022-10-21T11:02:40.953Z,95314.53
2022-10-21T11:05:23.345Z,95381.66
2022-10-21T11:07:54.269Z,95432.94
2022-10-21T11:10:30.912Z,95453.25
2022-10-21T11:12:58.099Z,95492.69
2022-10-21T11:15:44.715Z,95525.44
2022-10-21T11:18:27.875Z,95558.19
2022-10-21T11:21:07.407Z,95558.97
2022-10-21T11:24:21.481Z,95595.34
2022-10-21T11:27:19.139Z,95632.13
2022-10-21T11:30:15.928Z,95618.69
2022-10-21T11:33:14.497Z,95530.06
2022-10-21T11:35:46.921Z,95480.03
2022-10-21T11:38:28.123Z,95472.31
2022-10-21T11:41:09.871Z,95505.03
2022-10-21T11:43:45.371Z,95526.38
2022-10-21T11:46:26.856Z,95551.16
2022-10-21T11:49:35.175Z,95569.47
2022-10-21T11:52:47.929Z,95527.00
2022-10-21T11:55:17.090Z,95485.09
2022-10-21T11:58:05.035Z,95456.44
2022-10-21T12:00:35.992Z,95437.97
2022-10-21T12:03:13.139Z,95422.94
2022-10-21T12:05:58.871Z,95439.59
2022-10-21T12:08:27.763Z,95438.19
2022-10-21T12:11:09.543Z,95418.28
2022-10-21T12:13:47.995Z,95419.25
2022-10-21T12:16:24.647Z,95434.50
2022-10-21T12:18:52.445Z,95491.59
2022-10-21T12:21:21.253Z,95531.22
2022-10-21T12:23:49.864Z,95538.53
2022-10-21T12:26:28.749Z,95517.41
2022-10-21T12:29:16.380Z,95475.94
2022-10-21T12:32:04.302Z,95459.31
2022-10-21T12:34:30.672Z,95453.19
2022-10-21T12:36:57.125Z,95422.72
2022-10-21T12:39:32.578Z,95396.72
2022-10-21T12:42:10.994Z,95399.97
2022-10-21T12:44:37.504Z,95388.19
2022-10-21T12:47:05.554Z,95379.84
2022-10-21T12:49:33.563Z,95407.47
2022-10-21T12:52:03.157Z,95443.47
2022-10-21T12:54:31.594Z,95474.34
2022-10-21T12:57:02.333Z,95492.63
2022-10-21T12:59:38.966Z,95510.72
2022-10-21T13:02:05.337Z,95537.31
2022-10-21T13:04:31.687Z,95544.19
2022-10-21T13:07:16.440Z,95543.59
2022-10-21T13:09:52.197Z,95528.94
2022-10-21T13:12:22.887Z,95504.38
2022-10-21T13:15:13.775Z,95501.09
2022-10-21T13:17:50.284Z,95466.16
2022-10-21T13:20:19.649Z,95438.53
2022-10-21T13:23:03.266Z,95403.38
2022-10-21T13:25:32.899Z,95303.09
2022-10-21T13:28:05.415Z,95211.09
2022-10-21T13:30:39.077Z,95059.25
2022-10-21T13:33:20.758Z,94925.28
2022-10-21T13:35:48.080Z,94789.41
2022-10-21T13:38:17.498Z,94665.19
2022-10-21T13:40:52.214Z,94562.16
2022-10-21T13:43:22.039Z,94481.88
2022-10-21T13:45:49.690Z,94184.91
2022-10-21T13:48:20.675Z,93811.41
2022-10-21T13:50:48.417Z,93674.69
2022-10-21T13:53:29.522Z,93538.66
2022-10-21T13:56:19.636Z,93444.25
2022-10-21T13:58:46.107Z,93382.50
2022-10-21T14:01:13.562Z,93311.34
2022-10-21T14:03:41.939Z,93263.91
2022-10-21T14:06:09.595Z,93216.47
2022-10-21T14:08:42.240Z,93162.19
2022-10-21T14:11:22.254Z,93115.75
2022-10-21T14:13:49.369Z,93041.97
2022-10-21T14:16:35.872Z,92943.91
2022-10-21T14:19:03.481Z,92883.31
2022-10-21T14:21:30.129Z,92801.63
2022-10-21T14:23:57.506Z,92742.34
2022-10-21T14:26:24.175Z,92696.75
2022-10-21T14:28:50.857Z,92648.56
2022-10-21T14:31:17.253Z,92557.94
2022-10-21T14:33:45.362Z,92443.66
2022-10-21T14:36:23.368Z,92320.13
2022-10-21T14:39:00.465Z,92131.59
2022-10-21T14:41:41.269Z,92039.97
2022-10-21T14:44:21.886Z,91951.22
2022-10-21T14:46:49.956Z,91813.03
2022-10-21T14:49:22.564Z,91719.59
2022-10-21T14:51:49.492Z,91596.63
2022-10-21T14:54:25.949Z,91480.28
2022-10-21T14:56:52.517Z,91317.66
2022-10-21T14:59:29.237Z,91170.25
2022-10-21T15:01:56.003Z,91053.97
2022-10-21T15:04:41.986Z,90917.69
2022-10-21T15:07:36.803Z,90854.06
2022-10-21T15:10:03.171Z,90801.44
2022-10-21T15:12:50.317Z,90758.25
2022-10-21T15:15:43.040Z,90720.31
2022-10-21T15:18:14.163Z,90704.53
2022-10-21T15:20:50.587Z,90655.59
2022-10-21T15:23:20.130Z,90654.06
2022-10-21T15:25:46.884Z,90648.03
2022-10-21T15:28:13.268Z,90625.13
2022-10-21T15:30:39.724Z,90620.16
2022-10-21T15:33:09.755Z,90602.53
2022-10-21T15:35:36.145Z,90593.06
2022-10-21T15:38:02.519Z,90583.63
2022-10-21T15:40:28.914Z,90574.34
2022-10-21T15:42:56.644Z,90569.06
2022-10-21T15:45:23.670Z,90564.59
2022-10-21T15:47:54.006Z,90552.53
2022-10-21T15:50:22.507Z,90549.41
2022-10-21T15:52:48.912Z,90512.56
2022-10-21T15:55:15.536Z,90499.72
2022-10-21T15:57:42.359Z,90488.44
2022-10-21T16:00:20.029Z,90478.38
2022-10-21T16:02:47.333Z,90498.19
2022-10-21T16:05:13.962Z,90519.56
2022-10-21T16:07:40.974Z,90533.50
2022-10-21T16:10:16.407Z,90527.44
2022-10-21T16:12:42.770Z,90523.44
2022-10-21T16:15:09.658Z,90527.00
2022-10-21T16:17:36.015Z,90554.56
2022-10-21T16:20:02.598Z,90566.47
2022-10-21T16:22:29.170Z,90569.59
2022-10-21T16:24:55.552Z,90565.22
2022-10-21T16:27:30.994Z,90566.78
2022-10-21T16:30:24.629Z,90531.50
2022-10-21T16:32:51.409Z,90524.69
2022-10-21T16:35:18.880Z,90522.81
2022-10-21T16:37:45.452Z,90524.34
2022-10-21T16:40:17.946Z,90515.72
2022-10-21T16:42:44.330Z,90517.88
2022-10-21T16:45:11.126Z,90514.19
2022-10-21T16:47:37.556Z,90534.28
2022-10-21T16:50:04.642Z,90533.50
2022-10-21T16:52:33.419Z,90536.63
2022-10-21T16:54:59.796Z,90533.50
2022-10-21T16:57:26.171Z,90547.44
2022-10-21T16:59:52.601Z,90555.66
2022-10-21T17:02:19.791Z,90535.38
2022-10-21T17:04:47.106Z,90530.44
2022-10-21T17:07:13.708Z,90549.94
2022-10-21T17:09:40.098Z,90556.53
2022-10-21T17:12:07.508Z,90573.41
2022-10-21T17:17:05.224Z,90596.78
2022-10-21T17:19:31.694Z,90616.25
2022-10-21T17:21:58.112Z,90646.91
2022-10-21T17:24:25.728Z,90652.16
2022-10-21T17:26:52.160Z,90644.13
2022-10-21T17:29:18.554Z,90644.88
2022-10-21T17:31:45.028Z,90645.66
2022-10-21T17:34:22.937Z,90641.94
2022-10-21T17:36:49.335Z,90640.41
2022-10-21T17:39:15.727Z,90663.28
2022-10-21T17:41:42.134Z,90673.03
2022-10-21T17:44:11.295Z,90674.28
2022-10-21T17:46:37.739Z,90672.41
2022-10-21T17:49:04.303Z,90685.09
2022-10-21T17:51:30.740Z,90687.13
2022-10-21T17:53:57.230Z,90687.91
2022-10-21T17:56:23.635Z,90681.88
2022-10-21T17:58:51.180Z,90681.09
2022-10-21T18:01:17.660Z,90700.41
2022-10-21T18:03:44.836Z,90720.53
2022-10-21T18:06:11.546Z,90739.69
2022-10-21T18:08:38.092Z,90776.16
2022-10-21T18:11:11.609Z,90805.81
2022-10-21T18:13:39.181Z,90834.97
2022-10-21T18:16:07.598Z,90879.44
2022-10-21T18:18:34.093Z,90870.53
2022-10-21T18:21:04.623Z,90892.59
2022-10-21T18:23:31.122Z,90906.78
2022-10-21T18:26:03.660Z,90934.84
2022-10-21T18:28:31.090Z,90960.75
2022-10-21T18:30:57.458Z,90941.66
2022-10-21T18:33:24.027Z,90929.19
2022-10-21T18:35:50.771Z,90918.25
2022-10-21T18:38:17.202Z,90950.03
2022-10-21T18:40:51.349Z,90956.66
2022-10-21T18:43:28.778Z,90989.16
2022-10-21T18:45:55.228Z,91035.13
2022-10-21T18:48:21.633Z,91073.94
2022-10-21T18:50:48.007Z,91105.34
2022-10-21T18:53:14.414Z,91129.09
2022-10-21T18:55:40.783Z,91144.41
2022-10-21T18:58:07.164Z,91179.78
2022-10-21T19:00:33.531Z,91181.88
2022-10-21T19:02:59.899Z,91187.72
2022-10-21T19:05:26.457Z,91194.91
2022-10-21T19:07:53.319Z,91202.56
2022-10-21T19:10:19.759Z,91201.22
2022-10-21T19:12:46.114Z,91221.50
2022-10-21T19:15:12.760Z,91237.59
2022-10-21T19:17:41.030Z,91243.13
2022-10-21T19:20:08.233Z,91253.69
2022-10-21T19:22:34.612Z,91275.31
2022-10-21T19:25:01.073Z,91275.84
2022-10-21T19:27:27.451Z,91287.44
2022-10-21T19:29:53.892Z,91310.13
2022-10-21T19:32:20.360Z,91330.66
2022-10-21T19:34:46.745Z,91346.94
2022-10-21T19:37:13.260Z,91373.75
2022-10-21T19:39:39.800Z,91382.22
2022-10-21T19:42:06.205Z,91391.44
2022-10-21T19:44:32.652Z,91409.00
2022-10-21T19:46:59.069Z,91408.22
2022-10-21T19:49:25.460Z,91407.44
2022-10-21T19:51:51.852Z,91424.50
2022-10-21T19:54:18.232Z,91431.09
2022-10-21T19:56:44.691Z,91422.38
2022-10-21T19:59:11.216Z,91417.91
2022-10-21T20:01:37.800Z,91421.81
2022-10-21T20:04:05.379Z,91440.47
2022-10-21T20:06:33.267Z,91467.00
2022-10-21T20:09:11.930Z,91486.19
2022-10-21T20:11:38.578Z,91513.25
2022-10-21T20:14:05.009Z,91522.41
2022-10-21T20:16:37.098Z,91536.56
2022-10-21T20:19:04.596Z,91551.81
2022-10-21T20:21:31.538Z,91561.53
2022-10-21T20:23:58.453Z,91580.13
2022-10-21T20:26:24.881Z,91580.13
2022-10-21T20:28:51.589Z,91592.75
2022-10-21T20:31:18.239Z,91623.16
2022-10-21T20:33:46.725Z,91635.50
2022-10-21T20:36:17.125Z,91670.38
2022-10-21T20:38:43.799Z,91682.94
2022-10-21T20:41:15.229Z,91690.31
2022-10-21T20:43:41.747Z,91702.34
2022-10-21T20:46:09.443Z,91703.91
2022-10-21T20:48:36.114Z,91712.81
2022-10-21T20:51:10.799Z,91725.41
2022-10-21T20:53:39.901Z,91743.75
2022-10-21T20:56:07.023Z,91742.44
2022-10-21T20:58:34.924Z,91750.59
2022-10-21T21:01:17.847Z,91741.66
2022-10-21T21:03:44.446Z,91762.31
2022-10-21T21:06:11.482Z,91775.72
2022-10-21T21:08:41.501Z,91795.63
2022-10-21T21:11:15.721Z,91822.34
2022-10-21T21:13:44.243Z,91849.59
2022-10-21T21:16:18.078Z,91862.69
2022-10-21T21:18:45.178Z,91877.59
2022-10-21T21:21:13.322Z,91902.22
2022-10-21T21:23:40.225Z,91906.66
2022-10-21T21:26:14.454Z,91909.53
2022-10-21T21:28:41.036Z,91926.56
2022-10-21T21:31:08.153Z,91938.63
2022-10-21T21:33:34.781Z,91953.28
2022-10-21T21:36:01.272Z,91960.59
2022-10-21T21:38:27.847Z,91978.16
2022-10-21T21:40:54.386Z,91993.06
2022-10-21T21:43:21.924Z,92018.19
2022-10-21T21:45:48.730Z,92022.38
2022-10-21T21:50:42.865Z,92031.28
2022-10-21T21:53:10.472Z,92033.16
2022-10-21T21:55:36.983Z,92031.84
2022-10-21T21:58:03.522Z,92021.88
2022-10-21T22:00:30.076Z,91987.88
2022-10-21T22:02:56.460Z,91994.69
2022-10-21T22:05:26.221Z,92009.34
2022-10-21T22:07:53.387Z,91997.28
2022-10-21T22:10:19.749Z,91997.84
2022-10-21T22:12:46.229Z,92001.78
2022-10-21T22:15:19.821Z,92004.13
2022-10-21T22:17:59.533Z,92005.69
2022-10-21T22:20:25.947Z,92004.41
2022-10-21T22:22:52.345Z,91988.94
2022-10-21T22:25:18.727Z,91967.47
2022-10-21T22:27:45.183Z,91948.09
2022-10-21T22:30:13.558Z,91933.69
2022-10-21T22:32:39.978Z,91900.16
2022-10-21T22:35:07.486Z,91890.47
2022-10-21T22:37:33.881Z,91883.63
2022-10-21T22:40:00.222Z,91882.63
2022-10-21T22:42:26.628Z,91887.31
2022-10-21T22:44:52.998Z,91883.38
2022-10-21T22:47:23.252Z,91891.00
2022-10-21T22:49:53.251Z,91902.00
2022-10-21T22:52:19.652Z,91910.91
2022-10-21T22:54:49.980Z,91930.78
2022-10-21T22:57:17.104Z,91936.53
2022-10-21T22:59:44.289Z,91934.97
2022-10-21T23:02:11.598Z,91941.28
2022-10-21T23:04:37.990Z,91942.31
2022-10-21T23:07:04.375Z,91966.94
2022-10-21T23:09:30.772Z,91987.38
2022-10-21T23:11:57.362Z,91984.78
2022-10-21T23:14:23.745Z,91987.41
2022-10-21T23:16:50.176Z,91987.91
2022-10-21T23:19:16.589Z,91996.78
2022-10-21T23:21:42.967Z,91999.97
2022-10-21T23:24:09.475Z,92008.56
2022-10-21T23:26:35.936Z,92020.88
2022-10-21T23:29:02.358Z,92017.22
2022-10-21T23:31:28.749Z,92011.97
2022-10-21T23:33:55.127Z,92014.06
2022-10-21T23:36:21.550Z,92019.28
2022-10-21T23:38:47.955Z,92019.84
2022-10-21T23:41:14.342Z,92016.94
2022-10-21T23:43:40.893Z,92027.13
2022-10-21T23:46:07.357Z,92039.72
2022-10-21T23:48:33.726Z,92066.91
2022-10-21T23:51:00.105Z,92070.59
2022-10-21T23:53:26.467Z,92071.63
2022-10-21T23:55:52.851Z,92070.59
2022-10-21T23:58:19.275Z,92076.34
